Time;durP1;ratioP1;P1;durP2;ratioP2;P2;SDS_P1;SDS_P2;PMS_P1;PMS_P2;Temp;Humidity;BMP_temperature;BMP_pressure;BME280_temperature;BME280_humidity;BME280_pressure;Samples;Min_cycle;Max_cycle;Signal;HPM_P1;HPM_P2
2021/03/22 00:01:00;;;;;;;34.45;10.55;;;4.60;99.90;;;;;;4913305;29;20048;-64
2021/03/22 00:03:26;;;;;;;38.78;11.68;;;4.40;99.90;;;;;;4912296;29;20094;-63
2021/03/22 00:05:53;;;;;;;26.45;10.80;;;4.40;99.90;;;;;;4929758;28;20028;-64
2021/03/22 00:08:21;;;;;;;33.90;11.40;;;4.40;99.90;;;;;;4931245;29;20543;-63
2021/03/22 00:10:48;;;;;;;27.63;10.52;;;4.30;99.90;;;;;;4931699;29;20043;-64
2021/03/22 00:13:16;;;;;;;38.03;11.45;;;4.30;99.90;;;;;;4914823;28;20024;-62
2021/03/22 00:15:43;;;;;;;41.53;11.93;;;4.20;99.90;;;;;;4912475;29;20393;-63
2021/03/22 00:18:13;;;;;;;34.63;10.88;;;4.20;99.90;;;;;;4912435;28;20504;-63
2021/03/22 00:20:39;;;;;;;38.97;11.48;;;4.10;99.90;;;;;;4922918;28;20028;-62
2021/03/22 00:23:05;;;;;;;32.28;10.73;;;4.10;99.90;;;;;;4931085;28;20081;-64
2021/03/22 00:25:31;;;;;;;33.85;11.20;;;4.10;99.90;;;;;;4931706;28;20102;-63
2021/03/22 00:27:56;;;;;;;38.78;10.77;;;4.00;99.90;;;;;;4931084;28;20493;-64
2021/03/22 00:30:33;;;;;;;37.92;10.80;;;4.10;99.90;;;;;;4917786;28;20486;-63
2021/03/22 00:32:59;;;;;;;28.65;10.07;;;4.00;99.90;;;;;;4911812;29;20024;-63
2021/03/22 00:35:25;;;;;;;39.30;10.18;;;3.90;99.90;;;;;;4912485;28;20036;-63
2021/03/22 00:37:51;;;;;;;35.88;11.23;;;3.80;99.90;;;;;;4915786;29;20390;-64
2021/03/22 00:40:20;;;;;;;38.55;11.85;;;3.80;99.90;;;;;;4915557;29;20370;-64
2021/03/22 00:42:46;;;;;;;36.53;11.32;;;3.80;99.90;;;;;;4915052;28;20107;-62
2021/03/22 00:45:14;;;;;;;32.90;10.65;;;3.80;99.90;;;;;;4937918;29;20165;-64
2021/03/22 00:47:39;;;;;;;31.88;10.13;;;3.80;99.90;;;;;;4937834;29;20039;-64
2021/03/22 00:50:07;;;;;;;35.78;11.43;;;3.80;99.90;;;;;;4921321;29;20386;-64
2021/03/22 00:52:33;;;;;;;27.70;9.80;;;3.70;99.90;;;;;;4916932;29;20028;-65
2021/03/22 00:54:59;;;;;;;34.80;10.27;;;3.70;99.90;;;;;;4917766;29;20063;-65
2021/03/22 00:57:24;;;;;;;32.55;10.27;;;3.70;99.90;;;;;;4937741;28;20102;-65
2021/03/22 00:59:50;;;;;;;39.20;9.68;;;3.60;99.90;;;;;;4927997;28;20043;-64
2021/03/22 01:02:16;;;;;;;35.65;10.02;;;3.70;99.90;;;;;;4934070;29;20166;-63
2021/03/22 01:04:42;;;;;;;25.42;9.98;;;3.70;99.90;;;;;;4933660;29;20604;-65
2021/03/22 01:07:08;;;;;;;35.00;9.57;;;3.70;99.90;;;;;;4934274;29;20050;-64
2021/03/22 01:09:34;;;;;;;31.25;9.55;;;3.70;99.90;;;;;;4929732;28;20482;-64
2021/03/22 01:11:59;;;;;;;29.83;10.15;;;3.70;99.90;;;;;;4915357;29;20064;-64
2021/03/22 01:14:25;;;;;;;33.65;10.35;;;3.70;99.90;;;;;;4927956;28;20023;-64
2021/03/22 01:16:52;;;;;;;35.83;10.38;;;3.70;99.90;;;;;;4933977;28;20032;-65
2021/03/22 01:19:25;;;;;;;27.70;10.20;;;3.70;99.90;;;;;;4934180;28;20027;-66
2021/03/22 01:21:56;;;;;;;34.67;9.23;;;3.70;99.90;;;;;;4932837;28;20030;-65
2021/03/22 01:24:25;;;;;;;36.60;10.35;;;3.60;99.90;;;;;;4933288;29;20043;-66
2021/03/22 01:26:55;;;;;;;30.92;10.40;;;3.70;99.90;;;;;;4933830;28;20027;-65
2021/03/22 01:29:32;;;;;;;34.58;9.65;;;3.70;99.90;;;;;;4933622;28;20541;-65
2021/03/22 01:31:58;;;;;;;31.98;10.85;;;3.70;99.90;;;;;;4933945;29;20520;-65
2021/03/22 01:34:26;;;;;;;34.40;9.65;;;3.70;99.90;;;;;;4928722;28;20433;-64
2021/03/22 01:36:52;;;;;;;38.70;10.55;;;3.70;99.90;;;;;;4929002;29;20046;-64
2021/03/22 01:39:21;;;;;;;31.67;10.10;;;3.70;99.90;;;;;;4914841;29;20462;-64
2021/03/22 01:42:22;;;;;;;38.00;10.02;;;3.60;99.90;;;;;;4914646;28;20110;-65
2021/03/22 01:44:56;;;;;;;28.38;9.90;;;3.60;99.90;;;;;;4945686;28;20123;-65
2021/03/22 01:47:28;;;;;;;37.22;11.32;;;3.60;99.90;;;;;;4933008;28;20371;-64
2021/03/22 01:50:05;;;;;;;36.92;9.27;;;3.50;99.90;;;;;;4933313;28;20032;-66
2021/03/22 01:52:32;;;;;;;30.25;8.93;;;3.40;99.90;;;;;;4933807;29;20028;-63
2021/03/22 01:54:59;;;;;;;37.97;9.77;;;3.40;99.90;;;;;;4925105;28;20028;-64
2021/03/22 01:57:29;;;;;;;35.80;9.73;;;3.50;99.90;;;;;;4914643;29;20036;-65
2021/03/22 02:00:13;;;;;;;34.65;9.65;;;3.50;99.90;;;;;;4918293;29;20117;-64
2021/03/22 02:02:41;;;;;;;37.55;9.32;;;3.50;99.90;;;;;;4932721;28;20016;-66
2021/03/22 02:05:10;;;;;;;31.35;8.45;;;3.50;99.90;;;;;;4933163;29;20031;-65
2021/03/22 02:07:36;;;;;;;38.53;8.80;;;3.40;99.90;;;;;;4933223;29;20106;-64
2021/03/22 02:10:04;;;;;;;34.05;8.00;;;3.50;99.90;;;;;;4927870;29;20104;-64
2021/03/22 02:12:29;;;;;;;22.80;7.63;;;3.50;99.90;;;;;;4914324;29;20090;-65
2021/03/22 02:14:56;;;;;;;29.20;8.18;;;3.50;99.90;;;;;;4928632;28;20015;-65
2021/03/22 02:17:49;;;;;;;26.15;7.28;;;3.60;99.90;;;;;;4933130;29;20111;-64
2021/03/22 02:21:09;;;;;;;35.13;7.93;;;3.70;99.90;;;;;;4933004;29;20050;-65
2021/03/22 02:24:02;;;;;;;39.50;8.00;;;3.60;99.90;;;;;;4951637;29;20410;-65
2021/03/22 02:26:33;;;;;;;34.72;8.23;;;3.50;99.90;;;;;;4933616;29;20044;-65
2021/03/22 02:29:35;;;;;;;33.72;8.00;;;3.50;99.90;;;;;;4932891;28;20047;-64
2021/03/22 02:32:24;;;;;;;42.00;7.65;;;3.50;99.90;;;;;;4933047;29;20016;-65
2021/03/22 02:35:16;;;;;;;34.80;8.73;;;3.40;99.90;;;;;;4932186;29;20027;-65
2021/03/22 02:37:51;;;;;;;35.03;9.43;;;3.50;99.90;;;;;;4933038;28;20031;-64
2021/03/22 02:40:25;;;;;;;36.13;9.27;;;3.50;99.90;;;;;;4932901;28;20027;-65
2021/03/22 02:42:52;;;;;;;28.30;7.25;;;3.50;99.90;;;;;;4932317;28;20127;-65
2021/03/22 02:45:26;;;;;;;26.35;8.48;;;3.40;99.90;;;;;;4930366;28;20039;-65
2021/03/22 02:47:52;;;;;;;38.47;8.95;;;3.40;99.90;;;;;;4913728;29;20032;-65
2021/03/22 02:50:24;;;;;;;31.33;7.88;;;3.40;99.90;;;;;;4913164;28;20028;-65
2021/03/22 02:53:18;;;;;;;35.55;7.72;;;3.40;99.90;;;;;;4912927;29;20021;-65
2021/03/22 02:56:04;;;;;;;29.83;7.28;;;3.40;99.90;;;;;;4913736;29;20024;-65
2021/03/22 02:58:42;;;;;;;29.35;7.53;;;3.30;99.90;;;;;;4912562;29;20025;-63
2021/03/22 03:01:34;;;;;;;29.73;7.45;;;3.40;99.90;;;;;;4913467;29;20162;-65
2021/03/22 03:04:00;;;;;;;31.92;6.80;;;3.30;99.90;;;;;;4912815;28;20031;-65
2021/03/22 03:06:42;;;;;;;35.75;6.90;;;3.40;99.90;;;;;;4913130;29;20078;-65
2021/03/22 03:09:08;;;;;;;35.20;7.25;;;3.20;99.90;;;;;;4913298;29;20078;-65
2021/03/22 03:11:33;;;;;;;34.03;8.43;;;3.20;99.90;;;;;;4913429;29;20033;-66
2021/03/22 03:13:59;;;;;;;42.28;9.63;;;3.20;99.90;;;;;;4919713;28;20101;-65
2021/03/22 03:16:25;;;;;;;32.42;7.55;;;3.10;99.90;;;;;;4932370;28;20031;-65
2021/03/22 03:18:50;;;;;;;40.58;7.70;;;3.20;99.90;;;;;;4926858;28;20032;-65
2021/03/22 03:21:16;;;;;;;28.45;7.57;;;3.20;99.90;;;;;;4920940;28;20028;-66
2021/03/22 03:23:42;;;;;;;33.65;7.30;;;3.20;99.90;;;;;;4931624;28;20038;-65
2021/03/22 03:26:07;;;;;;;37.47;8.35;;;3.30;99.90;;;;;;4932088;29;20482;-66
2021/03/22 03:28:33;;;;;;;36.67;7.72;;;3.30;99.90;;;;;;4931598;28;20351;-66
2021/03/22 03:30:58;;;;;;;37.30;7.25;;;3.40;99.90;;;;;;4927185;28;20485;-65
2021/03/22 03:33:24;;;;;;;38.22;8.25;;;3.50;99.90;;;;;;4931526;28;20020;-65
2021/03/22 03:35:50;;;;;;;23.15;5.10;;;3.50;99.90;;;;;;4932157;28;20032;-65
2021/03/22 03:38:15;;;;;;;23.98;5.78;;;3.50;99.90;;;;;;4946518;28;20034;-65
2021/03/22 03:40:44;;;;;;;26.13;6.18;;;3.60;99.90;;;;;;4931964;29;20055;-64
2021/03/22 03:43:12;;;;;;;32.78;7.18;;;3.50;99.90;;;;;;4930978;28;20437;-66
2021/03/22 03:45:40;;;;;;;26.55;7.15;;;3.70;99.90;;;;;;4931645;29;20044;-65
2021/03/22 03:48:07;;;;;;;36.90;6.32;;;3.80;99.90;;;;;;4931851;28;20039;-65
2021/03/22 03:50:34;;;;;;;38.17;8.30;;;3.70;99.90;;;;;;4931504;28;20027;-65
2021/03/22 03:53:00;;;;;;;29.42;5.93;;;3.70;99.90;;;;;;4931029;29;20521;-65
2021/03/22 03:55:28;;;;;;;32.53;6.63;;;3.70;99.90;;;;;;4931735;29;20111;-64
2021/03/22 03:57:55;;;;;;;30.13;6.88;;;3.70;99.90;;;;;;4933962;29;20031;-66
2021/03/22 04:00:31;;;;;;;30.40;6.30;;;3.70;99.90;;;;;;4916309;28;20039;-66
2021/03/22 04:02:58;;;;;;;32.30;6.78;;;3.80;99.90;;;;;;4912749;29;20047;-67
2021/03/22 04:05:27;;;;;;;28.73;5.65;;;3.70;99.90;;;;;;4912764;29;20508;-66
2021/03/22 04:07:53;;;;;;;24.95;5.57;;;3.70;99.90;;;;;;4924560;28;20024;-66
2021/03/22 04:10:19;;;;;;;30.83;6.18;;;3.70;99.90;;;;;;4931753;29;20027;-65
2021/03/22 04:12:45;;;;;;;29.40;5.95;;;3.70;99.90;;;;;;4931168;29;20024;-66
2021/03/22 04:15:13;;;;;;;29.35;6.90;;;3.70;99.90;;;;;;4931501;28;20129;-64
2021/03/22 04:17:40;;;;;;;37.42;7.35;;;3.70;99.90;;;;;;4931558;29;20124;-66
2021/03/22 04:20:06;;;;;;;43.20;6.90;;;3.90;99.90;;;;;;4931599;29;20115;-65
2021/03/22 04:22:32;;;;;;;27.75;5.78;;;3.80;99.90;;;;;;4931159;28;20044;-66
2021/03/22 04:24:58;;;;;;;35.75;7.30;;;3.90;99.90;;;;;;4923207;28;20027;-65
2021/03/22 04:27:24;;;;;;;30.60;6.72;;;3.70;99.90;;;;;;4931214;28;20118;-66
2021/03/22 04:29:49;;;;;;;30.63;6.57;;;3.80;99.90;;;;;;4916112;28;20394;-66
2021/03/22 04:32:15;;;;;;;37.22;6.20;;;3.80;99.90;;;;;;4927378;29;20540;-65
2021/03/22 04:34:41;;;;;;;30.67;5.57;;;3.80;99.90;;;;;;4920441;29;20489;-65
2021/03/22 04:37:07;;;;;;;34.08;6.95;;;3.80;99.90;;;;;;4932209;28;20020;-65
2021/03/22 04:39:33;;;;;;;31.85;6.18;;;3.80;99.90;;;;;;4925432;29;20029;-65
2021/03/22 04:41:58;;;;;;;35.25;6.72;;;3.80;99.90;;;;;;4912531;29;20075;-65
2021/03/22 04:44:24;;;;;;;38.33;6.13;;;3.80;99.90;;;;;;4922146;29;20035;-65
2021/03/22 04:46:50;;;;;;;28.05;6.13;;;3.70;99.90;;;;;;4916741;28;20351;-66
2021/03/22 04:49:16;;;;;;;37.33;7.88;;;3.60;99.90;;;;;;4912483;29;20043;-65
2021/03/22 04:51:41;;;;;;;29.52;6.03;;;3.70;99.90;;;;;;4925848;29;20040;-67
2021/03/22 04:54:08;;;;;;;29.08;6.40;;;3.70;99.90;;;;;;4929588;29;20032;-66
2021/03/22 04:56:34;;;;;;;31.95;6.50;;;3.70;99.90;;;;;;4929397;28;20052;-66
2021/03/22 04:59:00;;;;;;;26.00;6.40;;;3.80;99.90;;;;;;4931225;29;20115;-65
2021/03/22 05:01:26;;;;;;;36.42;5.72;;;3.70;99.90;;;;;;4936118;28;20066;-66
2021/03/22 05:03:52;;;;;;;33.40;7.05;;;3.70;99.90;;;;;;4931473;28;20047;-66
2021/03/22 05:06:17;;;;;;;38.88;7.30;;;3.70;99.90;;;;;;4912247;29;20478;-65
2021/03/22 05:08:43;;;;;;;27.35;5.70;;;3.80;99.90;;;;;;4912006;29;20028;-65
2021/03/22 05:11:09;;;;;;;33.20;6.00;;;3.80;99.90;;;;;;4912035;29;20028;-65
2021/03/22 05:13:35;;;;;;;29.95;6.53;;;3.80;99.90;;;;;;4915338;29;20034;-65
2021/03/22 05:16:00;;;;;;;30.45;5.90;;;3.70;99.90;;;;;;4931018;29;20038;-64
2021/03/22 05:18:30;;;;;;;26.13;5.95;;;3.70;99.90;;;;;;4931105;29;20574;-64
2021/03/22 05:20:58;;;;;;;27.13;6.15;;;3.70;99.90;;;;;;4930943;29;20096;-64
2021/03/22 05:23:27;;;;;;;30.58;5.72;;;3.70;99.90;;;;;;4940116;29;20050;-66
2021/03/22 05:25:54;;;;;;;35.90;7.20;;;3.70;99.90;;;;;;4944841;29;20035;-66
2021/03/22 05:28:21;;;;;;;30.17;6.00;;;3.70;99.90;;;;;;4932308;29;20494;-64
2021/03/22 05:30:47;;;;;;;31.27;5.30;;;3.60;99.90;;;;;;4922955;28;20032;-65
2021/03/22 05:33:16;;;;;;;28.23;6.43;;;3.70;99.90;;;;;;4918959;28;20526;-64
2021/03/22 05:35:42;;;;;;;33.53;6.53;;;3.70;99.90;;;;;;4924667;29;20042;-66
2021/03/22 05:38:09;;;;;;;31.90;6.50;;;3.70;99.90;;;;;;4932684;28;20058;-65
2021/03/22 05:40:45;;;;;;;33.85;7.00;;;3.80;99.90;;;;;;4931697;28;20438;-65
2021/03/22 05:43:31;;;;;;;29.98;6.50;;;3.90;99.90;;;;;;4926250;29;20115;-66
2021/03/22 05:46:30;;;;;;;35.72;6.45;;;3.90;99.90;;;;;;4934695;29;20031;-65
2021/03/22 05:49:10;;;;;;;28.65;5.88;;;4.00;99.90;;;;;;4933286;28;20082;-64
2021/03/22 05:51:54;;;;;;;32.60;7.05;;;3.90;99.90;;;;;;4933321;28;20020;-65
2021/03/22 05:54:20;;;;;;;33.45;6.22;;;4.00;99.90;;;;;;4931862;28;20028;-66
2021/03/22 05:57:07;;;;;;;29.25;7.00;;;4.00;99.90;;;;;;4933926;28;20028;-65
2021/03/22 06:00:00;;;;;;;26.65;6.18;;;4.00;99.90;;;;;;4934436;28;20508;-64
2021/03/22 06:02:40;;;;;;;28.85;6.38;;;4.10;99.90;;;;;;4918235;28;20032;-64
2021/03/22 06:05:28;;;;;;;22.42;5.70;;;4.10;99.90;;;;;;4914229;29;20036;-65
2021/03/22 06:08:01;;;;;;;39.67;6.45;;;4.10;99.90;;;;;;4912810;28;20540;-64
2021/03/22 06:10:38;;;;;;;31.30;5.47;;;4.20;99.90;;;;;;4914592;29;20075;-69
2021/03/22 06:13:06;;;;;;;30.08;5.63;;;4.20;99.90;;;;;;4914279;29;20078;-69
2021/03/22 06:15:42;;;;;;;26.63;5.95;;;4.30;99.90;;;;;;4913925;28;20082;-69
2021/03/22 06:18:27;;;;;;;25.85;6.07;;;4.60;99.90;;;;;;4914621;29;20028;-69
2021/03/22 06:20:55;;;;;;;23.23;5.00;;;4.70;99.90;;;;;;4914459;28;20028;-69
2021/03/22 06:23:34;;;;;;;32.22;5.68;;;4.60;99.90;;;;;;4928085;28;20190;-69
2021/03/22 06:26:00;;;;;;;33.65;6.50;;;4.40;99.90;;;;;;4931138;28;20035;-65
2021/03/22 06:28:32;;;;;;;28.42;5.32;;;4.40;99.90;;;;;;4933136;29;20554;-66
2021/03/22 06:31:11;;;;;;;25.35;5.72;;;4.30;99.90;;;;;;4933595;28;20127;-68
2021/03/22 06:33:40;;;;;;;27.58;6.30;;;4.30;99.90;;;;;;4914226;29;20036;-69
2021/03/22 06:36:08;;;;;;;30.25;6.82;;;4.30;99.90;;;;;;4916348;28;20032;-68
2021/03/22 06:38:34;;;;;;;25.63;5.25;;;4.30;99.90;;;;;;4934248;29;20059;-68
2021/03/22 06:41:28;;;;;;;23.60;5.07;;;4.40;99.90;;;;;;4935422;28;20508;-67
2021/03/22 06:43:56;;;;;;;25.13;5.40;;;4.40;99.90;;;;;;4924731;28;20023;-68
2021/03/22 06:46:21;;;;;;;22.85;5.60;;;4.30;99.90;;;;;;4932736;28;20078;-67
2021/03/22 06:49:20;;;;;;;28.83;5.63;;;4.50;99.90;;;;;;4933552;28;20063;-66
2021/03/22 06:52:22;;;;;;;23.05;6.00;;;4.60;99.90;;;;;;4932647;29;20043;-66
2021/03/22 06:54:53;;;;;;;34.92;6.25;;;4.70;99.90;;;;;;4929970;28;20050;-65
2021/03/22 06:57:27;;;;;;;25.00;5.18;;;4.80;99.90;;;;;;4941438;28;20043;-65
2021/03/22 07:00:19;;;;;;;37.67;6.05;;;4.80;99.90;;;;;;4931800;29;20042;-66
2021/03/22 07:02:49;;;;;;;35.60;7.32;;;4.80;99.90;;;;;;4931429;29;20044;-66
2021/03/22 07:05:28;;;;;;;24.13;5.88;;;4.70;99.90;;;;;;4946520;29;20114;-65
2021/03/22 07:07:56;;;;;;;36.85;6.28;;;4.70;99.90;;;;;;4931936;29;20039;-65
2021/03/22 07:10:27;;;;;;;30.92;5.70;;;4.70;99.90;;;;;;4931740;28;20016;-65
2021/03/22 07:13:17;;;;;;;34.63;6.78;;;4.70;99.90;;;;;;4929415;28;20031;-65
2021/03/22 07:15:44;;;;;;;35.88;6.82;;;4.80;99.90;;;;;;4933141;28;20081;-65
2021/03/22 07:18:26;;;;;;;32.30;7.25;;;4.80;99.90;;;;;;4930416;29;20035;-67
2021/03/22 07:20:55;;;;;;;31.83;6.35;;;4.90;99.90;;;;;;4924019;28;20028;-67
2021/03/22 07:23:45;;;;;;;34.33;5.28;;;4.80;99.90;;;;;;4930854;28;20031;-66
2021/03/22 07:26:22;;;;;;;31.50;5.63;;;4.70;99.90;;;;;;4926242;28;20031;-68
2021/03/22 07:29:09;;;;;;;38.13;5.95;;;4.80;99.90;;;;;;4931346;29;20055;-68
2021/03/22 07:31:41;;;;;;;27.02;6.35;;;4.80;99.90;;;;;;4918560;28;20032;-68
2021/03/22 07:34:38;;;;;;;31.58;7.07;;;4.70;99.90;;;;;;4927887;28;20047;-67
2021/03/22 07:37:38;;;;;;;23.92;5.72;;;4.70;99.90;;;;;;4928467;28;20031;-67
2021/03/22 07:40:20;;;;;;;32.83;6.03;;;4.70;99.90;;;;;;4932581;28;20107;-68
2021/03/22 07:42:46;;;;;;;;;;;4.80;99.90;;;;;;4922949;28;20164;-67
2021/03/22 07:45:21;;;;;;;43.58;5.97;;;4.80;99.90;;;;;;4913538;29;19950;-66
2021/03/22 07:47:59;;;;;;;23.40;5.47;;;4.80;99.90;;;;;;4913167;29;20036;-67
2021/03/22 07:50:37;;;;;;;30.70;6.10;;;4.70;99.90;;;;;;4933412;28;20024;-68
2021/03/22 07:53:09;;;;;;;27.30;6.68;;;4.90;99.90;;;;;;4928265;29;20047;-69
2021/03/22 07:56:19;;;;;;;30.63;6.25;;;4.70;99.90;;;;;;4929921;28;20028;-67
2021/03/22 07:58:54;;;;;;;28.48;5.95;;;4.80;99.90;;;;;;4932066;29;20397;-67
2021/03/22 08:01:48;;;;;;;30.08;6.07;;;4.80;99.90;;;;;;4932232;28;20397;-66
2021/03/22 08:04:32;;;;;;;29.55;7.05;;;4.80;99.90;;;;;;4938799;28;20486;-66
2021/03/22 08:07:31;;;;;;;31.23;5.70;;;4.90;99.90;;;;;;4929492;28;20024;-67
2021/03/22 08:10:29;;;;;;;26.50;5.80;;;5.00;99.90;;;;;;4932531;28;20028;-67
2021/03/22 08:13:21;;;;;;;27.88;5.80;;;4.90;99.90;;;;;;4926072;28;20421;-68
2021/03/22 08:15:58;;;;;;;31.17;6.18;;;5.00;99.90;;;;;;4917706;29;20012;-68
2021/03/22 08:18:45;;;;;;;28.38;6.10;;;5.10;99.90;;;;;;4931419;28;20048;-65
2021/03/22 08:21:25;;;;;;;30.75;5.35;;;5.20;99.90;;;;;;4918439;28;20047;-65
2021/03/22 08:23:57;;;;;;;26.25;6.00;;;5.30;99.90;;;;;;4912725;29;20043;-66
2021/03/22 08:26:34;;;;;;;29.40;6.72;;;5.30;99.90;;;;;;4932155;28;20027;-66
2021/03/22 08:29:00;;;;;;;24.30;6.15;;;5.30;99.90;;;;;;4932122;29;20040;-66
2021/03/22 08:31:50;;;;;;;25.33;4.97;;;5.30;99.90;;;;;;4931615;28;20028;-65
2021/03/22 08:34:30;;;;;;;27.80;5.70;;;5.40;99.90;;;;;;4921334;28;20111;-66
2021/03/22 08:37:20;;;;;;;34.15;6.75;;;5.40;99.90;;;;;;4932164;29;20024;-66
2021/03/22 08:40:04;;;;;;;20.08;5.13;;;5.60;99.90;;;;;;4930659;28;20038;-66
2021/03/22 08:42:38;;;;;;;24.70;4.38;;;5.90;99.90;;;;;;4933144;29;20024;-65
2021/03/22 08:45:04;;;;;;;32.83;5.20;;;5.70;99.90;;;;;;4939339;28;20478;-66
2021/03/22 08:47:57;;;;;;;30.13;6.45;;;5.70;99.90;;;;;;4912779;29;20036;-66
2021/03/22 08:50:28;;;;;;;22.05;4.70;;;5.70;99.90;;;;;;4913180;28;20182;-67
2021/03/22 08:53:01;;;;;;;27.65;4.63;;;5.80;99.90;;;;;;4926375;28;20490;-66
2021/03/22 08:55:46;;;;;;;27.67;4.88;;;5.90;99.90;;;;;;4913232;28;20036;-65
2021/03/22 08:58:14;;;;;;;17.58;3.72;;;5.90;99.90;;;;;;4915891;29;20035;-66
2021/03/22 09:00:45;;;;;;;20.17;4.32;;;6.00;99.90;;;;;;4916572;29;20073;-65
2021/03/22 09:03:14;;;;;;;10.13;3.45;;;6.30;99.90;;;;;;4916811;29;20029;-65
2021/03/22 09:05:59;;;;;;;12.20;3.38;;;6.30;99.90;;;;;;4935579;28;20024;-66
2021/03/22 09:08:25;;;;;;;18.65;3.63;;;6.40;99.90;;;;;;4942022;29;20067;-66
2021/03/22 09:10:52;;;;;;;18.02;3.70;;;6.50;99.90;;;;;;4930258;29;20028;-66
2021/03/22 09:13:27;;;;;;;16.35;3.97;;;6.50;99.90;;;;;;4918651;29;20029;-66
2021/03/22 09:16:12;;;;;;;13.27;3.53;;;6.70;99.90;;;;;;4933282;28;20024;-67
2021/03/22 09:19:10;;;;;;;17.23;4.13;;;6.50;99.90;;;;;;4951270;29;20046;-66
2021/03/22 09:21:42;;;;;;;19.17;3.55;;;6.50;99.90;;;;;;4934187;28;20119;-66
2021/03/22 09:24:36;;;;;;;18.52;3.60;;;6.50;99.90;;;;;;4930096;28;20028;-67
2021/03/22 09:27:04;;;;;;;19.73;3.70;;;6.70;99.90;;;;;;4933850;28;20059;-66
2021/03/22 09:29:43;;;;;;;14.20;2.97;;;6.70;99.90;;;;;;4934185;29;20090;-66
2021/03/22 09:32:38;;;;;;;20.90;3.40;;;6.80;99.90;;;;;;4934634;29;20098;-66
2021/03/22 09:35:16;;;;;;;8.88;2.28;;;6.90;99.90;;;;;;4922784;28;20078;-67
2021/03/22 09:37:58;;;;;;;11.20;2.67;;;6.80;99.90;;;;;;4918412;28;20020;-67
2021/03/22 09:40:24;;;;;;;15.00;2.90;;;6.70;99.90;;;;;;4934216;28;20020;-67
2021/03/22 09:45:51;;;;;;;10.35;2.83;;;6.40;99.90;;;;;;4934602;28;20084;-66
2021/03/22 09:48:17;;;;;;;13.90;2.30;;;6.40;99.90;;;;;;4933842;28;20063;-66
2021/03/22 09:50:45;;;;;;;5.93;2.20;;;6.20;99.90;;;;;;4934483;29;20485;-66
2021/03/22 09:53:24;;;;;;;9.55;2.40;;;6.40;99.90;;;;;;4934671;28;20024;-65
2021/03/22 09:55:59;;;;;;;9.63;2.30;;;6.50;99.90;;;;;;4935531;29;20087;-67
2021/03/22 09:58:34;;;;;;;12.00;1.80;;;6.50;99.90;;;;;;4935123;28;20020;-67
2021/03/22 10:01:25;;;;;;;7.65;1.88;;;6.40;99.90;;;;;;4925223;28;20040;-67
2021/03/22 10:04:27;;;;;;;9.10;2.35;;;6.30;99.90;;;;;;4921335;29;20044;-67
2021/03/22 10:07:01;;;;;;;13.95;2.33;;;6.50;99.90;;;;;;4931658;29;20119;-67
2021/03/22 10:09:36;;;;;;;14.98;2.47;;;6.60;99.90;;;;;;4944377;29;20119;-68
2021/03/22 10:12:28;;;;;;;11.57;2.60;;;6.80;99.90;;;;;;4945894;28;20031;-68
2021/03/22 10:15:24;;;;;;;9.52;2.70;;;6.90;99.90;;;;;;4944097;29;20057;-67
2021/03/22 10:18:00;;;;;;;11.65;2.22;;;7.00;99.90;;;;;;4948227;28;20024;-67
2021/03/22 10:20:52;;;;;;;12.60;2.80;;;7.00;99.90;;;;;;4940383;29;20032;-67
2021/03/22 10:23:30;;;;;;;10.48;2.08;;;7.10;99.90;;;;;;4935668;29;20034;-67
2021/03/22 10:26:36;;;;;;;17.50;2.58;;;7.10;99.90;;;;;;4943395;28;20035;-67
2021/03/22 10:29:20;;;;;;;7.30;2.60;;;7.10;99.90;;;;;;4943501;28;20046;-67
2021/03/22 10:32:09;;;;;;;12.63;2.45;;;7.00;99.90;;;;;;4934256;28;20832;-68
2021/03/22 10:34:55;;;;;;;19.75;2.83;;;6.80;99.90;;;;;;4923088;28;20107;-67
2021/03/22 10:37:25;;;;;;;16.40;2.75;;;6.70;99.90;;;;;;4934150;28;20444;-66
2021/03/22 10:39:57;;;;;;;20.52;3.28;;;6.90;99.90;;;;;;4947759;28;20023;-68
2021/03/22 10:42:25;;;;;;;15.10;3.80;;;6.80;99.90;;;;;;4934248;29;20091;-67
2021/03/22 10:44:52;;;;;;;8.52;2.28;;;7.00;99.90;;;;;;4933640;28;20046;-67
2021/03/22 10:47:20;;;;;;;5.57;1.98;;;6.90;99.90;;;;;;4948790;28;20510;-67
2021/03/22 10:49:47;;;;;;;8.82;2.05;;;7.00;99.90;;;;;;4923611;28;20427;-67
2021/03/22 10:52:39;;;;;;;7.78;2.10;;;7.00;99.90;;;;;;4924352;29;20058;-67
2021/03/22 10:55:05;;;;;;;9.07;2.10;;;7.40;99.90;;;;;;4921209;28;20067;-67
2021/03/22 10:57:37;;;;;;;7.30;2.25;;;7.50;99.90;;;;;;4914927;29;20314;-68
2021/03/22 11:00:43;;;;;;;7.57;1.92;;;7.60;99.90;;;;;;4940693;28;20592;-67
2021/03/22 11:03:10;;;;;;;5.35;1.65;;;7.60;99.90;;;;;;4952069;29;20090;-66
2021/03/22 11:05:40;;;;;;;9.38;2.08;;;7.90;99.90;;;;;;4938207;29;20122;-66
2021/03/22 11:08:19;;;;;;;10.60;2.72;;;8.00;99.90;;;;;;4933404;28;20046;-67
2021/03/22 11:10:45;;;;;;;5.75;1.77;;;8.00;99.90;;;;;;4948450;28;20023;-67
2021/03/22 11:13:18;;;;;;;10.65;2.00;;;8.10;99.90;;;;;;4932904;28;20024;-67
2021/03/22 11:15:47;;;;;;;;;;;7.90;99.90;;;;;;4921585;28;20027;-67
2021/03/22 11:18:16;;;;;;;5.25;2.30;;;8.00;99.90;;;;;;4933453;29;19907;-67
2021/03/22 11:20:47;;;;;;;14.07;2.50;;;7.80;99.90;;;;;;4931729;29;20023;-67
2021/03/22 11:23:27;;;;;;;8.85;2.38;;;7.90;99.90;;;;;;4933926;29;20393;-68
2021/03/22 11:25:55;;;;;;;8.63;1.98;;;7.70;99.90;;;;;;4935943;29;20032;-70
2021/03/22 11:28:20;;;;;;;5.57;2.15;;;7.60;99.90;;;;;;4948343;28;20035;-69
2021/03/22 11:30:49;;;;;;;7.68;2.22;;;8.10;99.90;;;;;;4962689;28;20038;-67
2021/03/22 11:33:16;;;;;;;7.50;1.80;;;8.60;99.90;;;;;;4957299;29;20047;-66
2021/03/22 11:35:44;;;;;;;8.73;2.05;;;8.50;99.90;;;;;;4935105;29;20024;-67
2021/03/22 11:38:47;;;;;;;5.50;1.80;;;8.90;99.90;;;;;;4934242;29;20028;-69
2021/03/22 11:41:31;;;;;;;;;;;8.40;99.90;;;;;;4925378;28;20044;-67
2021/03/22 11:44:15;;;;;;;8.68;2.42;;;7.60;99.90;;;;;;4915676;29;19911;-68
2021/03/22 11:46:43;;;;;;;6.75;2.20;;;7.30;99.90;;;;;;4915191;29;20043;-67
2021/03/22 11:49:43;;;;;;;5.85;1.98;;;7.00;99.90;;;;;;4914118;28;20036;-68
2021/03/22 11:52:20;;;;;;;8.48;2.28;;;6.80;99.90;;;;;;4912076;29;20035;-67
2021/03/22 11:54:53;;;;;;;9.40;2.17;;;6.90;99.90;;;;;;4935503;28;20022;-67
2021/03/22 11:57:23;;;;;;;6.20;1.70;;;7.30;99.90;;;;;;4933747;29;20019;-68
2021/03/22 11:59:55;;;;;;;11.77;2.63;;;7.60;99.90;;;;;;4930153;29;20114;-68
2021/03/22 12:02:41;;;;;;;7.22;1.67;;;7.90;99.90;;;;;;4928372;29;20046;-68
2021/03/22 12:05:23;;;;;;;6.85;1.52;;;8.20;99.90;;;;;;4909632;29;20051;-68
2021/03/22 12:07:49;;;;;;;6.40;1.98;;;8.50;99.90;;;;;;4914111;29;20111;-67
2021/03/22 12:10:23;;;;;;;8.10;2.08;;;8.90;99.90;;;;;;4924951;28;20032;-67
2021/03/22 12:12:49;;;;;;;7.07;1.83;;;9.10;99.90;;;;;;4935387;29;20039;-68
2021/03/22 12:15:17;;;;;;;5.45;1.80;;;8.80;99.90;;;;;;4936492;28;20027;-68
2021/03/22 12:17:45;;;;;;;10.82;2.30;;;8.80;99.90;;;;;;4916752;28;20108;-69
2021/03/22 12:20:24;;;;;;;6.05;1.70;;;8.90;99.90;;;;;;4933038;29;20024;-68
2021/03/22 12:22:50;;;;;;;7.20;2.00;;;8.80;99.90;;;;;;4951122;29;20028;-68
2021/03/22 12:25:28;;;;;;;4.82;2.10;;;8.60;99.90;;;;;;4921609;28;20039;-68
2021/03/22 12:27:55;;;;;;;9.20;1.98;;;8.30;99.90;;;;;;4919522;29;20078;-68
2021/03/22 12:30:23;;;;;;;7.53;2.22;;;8.20;99.90;;;;;;4920269;29;20025;-67
2021/03/22 12:32:49;;;;;;;11.57;2.70;;;8.10;99.90;;;;;;4924605;29;20114;-66
2021/03/22 12:35:23;;;;;;;9.52;1.90;;;8.10;99.90;;;;;;4924780;29;20367;-67
2021/03/22 12:37:49;;;;;;;4.80;1.98;;;7.80;99.90;;;;;;4948094;29;20032;-67
2021/03/22 12:40:15;;;;;;;7.40;1.80;;;7.70;99.90;;;;;;4926247;28;20569;-68
2021/03/22 12:42:43;;;;;;;6.38;1.90;;;7.60;99.90;;;;;;4940163;29;20039;-66
2021/03/22 12:45:20;;;;;;;5.63;1.65;;;7.40;99.90;;;;;;4926669;29;20032;-68
2021/03/22 12:47:46;;;;;;;5.88;1.85;;;7.40;99.90;;;;;;4927469;28;20032;-67
2021/03/22 12:50:23;;;;;;;7.72;2.15;;;7.40;99.90;;;;;;4924042;29;20067;-67
2021/03/22 12:52:53;;;;;;;5.70;1.85;;;7.30;99.90;;;;;;4933881;29;20051;-67
2021/03/22 12:55:20;;;;;;;7.55;2.30;;;7.40;99.90;;;;;;4939703;29;20432;-66
2021/03/22 12:57:47;;;;;;;6.70;2.30;;;7.50;99.90;;;;;;4938596;29;20031;-67
2021/03/22 13:00:16;;;;;;;8.93;2.13;;;7.50;99.90;;;;;;4939605;29;20436;-73
2021/03/22 13:02:44;;;;;;;5.32;2.03;;;7.30;99.90;;;;;;4937925;28;20030;-72
2021/03/22 13:05:19;;;;;;;14.23;2.38;;;7.30;99.90;;;;;;4938449;28;20525;-73
2021/03/22 13:07:46;;;;;;;8.30;2.38;;;7.30;99.90;;;;;;4936594;29;20024;-73
2021/03/22 13:10:12;;;;;;;10.45;2.10;;;7.40;99.90;;;;;;4940457;29;20020;-74
2021/03/22 13:12:38;;;;;;;8.75;2.25;;;7.40;99.90;;;;;;4938205;29;20094;-75
2021/03/22 13:15:06;;;;;;;7.95;2.47;;;7.50;99.90;;;;;;4936409;29;20478;-72
2021/03/22 13:17:34;;;;;;;7.70;1.88;;;7.50;99.90;;;;;;4936881;29;20066;-73
2021/03/22 13:20:02;;;;;;;6.25;1.95;;;7.60;99.90;;;;;;4938449;28;20032;-73
2021/03/22 13:22:29;;;;;;;10.07;1.70;;;7.40;99.90;;;;;;4940310;29;20023;-75
2021/03/22 13:24:56;;;;;;;12.07;3.30;;;7.40;99.90;;;;;;4952623;29;20016;-77